Terminal Aerodrome Forecast
Issued by NWS Quad Cities IA IL

Home | Current Version | Previous Version | Text Only | Print | Product List | Glossary On
Versions: 1 2 3 4 5 6 7 8 9 10 11 12 13 14 15 16 17 18 19 20 21 22 23 24 25 26 27 28 29 30 31 32
000
FTUS43 KDVN 191457 AAC
TAFDBQ
TAF AMD
KDBQ 191457Z 1915/2012 09006KT 1/4SM FZFG OVC002
     FM191800 10005KT 1SM -RA BR OVC004
     FM200200 12004KT 1/2SM -RA FG OVC002=

USA.gov is the U.S. government's official web portal to all federal, state and local government web resources and services.